Weather at Singapore Changi Airport

Public forecast

Using degrees Celsius for public forecast. Weather courtesy of forecast.io.

Current aviation weather report (METAR) for Singapore Changi Airport

Retrieved 2022/06/30 10:00 UTC (14 minutes ago):

WSSS 301000Z 15005KT 9999 -RA FEW018 BKN150 28/23 Q1006 NOSIG

Aviation forecast (TAF) for Singapore Changi Airport

Retrieved 2022/06/30 06:11 UTC (4 hours ago):

TAF WSSS 300500Z 3006/0112 21009KT 9999 FEW015 SCT020